Time;durP1;ratioP1;P1;durP2;ratioP2;P2;SDS_P1;SDS_P2;PMS_P1;PMS_P2;Temp;Humidity;BMP_temperature;BMP_pressure;BME280_temperature;BME280_humidity;BME280_pressure;Samples;Min_cycle;Max_cycle;Signal;HPM_P1;HPM_P2
2022/04/30 00:00:58;;;;;;;;;;;;;;;;;;4940451;28;107275;-74
2022/04/30 00:03:26;;;;;;;;;;;;;;;;;;4953439;28;128122;-74
2022/04/30 00:05:52;;;;;;;;;;;;;;;;;;4956994;28;136492;-73
2022/04/30 00:08:18;;;;;;;;;;;;;;;;;;4945375;28;129150;-73
2022/04/30 00:10:45;;;;;;;;;;;;;;;;;;4946658;28;110391;-74
2022/04/30 00:13:11;;;;;;;;;;;;;;;;;;4951098;28;136662;-74
2022/04/30 00:15:37;;;;;;;;;;;;;;;;;;4954926;28;130026;-74
2022/04/30 00:18:03;;;;;;;;;;;;;;;;;;4955573;28;136616;-74
2022/04/30 00:20:32;;;;;;;;;;;;;;;;;;4943781;28;135790;-74
2022/04/30 00:22:58;;;;;;;;;;;;;;;;;;4962209;28;129478;-74
2022/04/30 00:25:24;;;;;;;;;;;;;;;;;;4957008;28;136441;-74
2022/04/30 00:27:51;;;;;;;;;;;;;;;;;;4940695;28;129926;-73
2022/04/30 00:30:17;;;;;;;;;;;;;;;;;;4940440;28;106972;-74
2022/04/30 00:32:44;;;;;;;;;;;;;;;;;;4954266;28;106616;-74
2022/04/30 00:35:10;;;;;;;;;;;;;;;;;;4946941;28;128439;-74
2022/04/30 00:37:37;;;;;;;;;;;;;;;;;;4946577;28;137206;-74
2022/04/30 00:40:03;;;;;;;;;;;;;;;;;;4945816;28;136113;-73
2022/04/30 00:42:29;;;;;;;;;;;;;;;;;;4948872;28;106813;-72
2022/04/30 00:44:56;;;;;;;;;;;;;;;;;;4945112;28;136718;-74
2022/04/30 00:47:22;;;;;;;;;;;;;;;;;;4950439;28;137659;-72
2022/04/30 00:49:49;;;;;;;;;;;;;;;;;;4949699;28;108414;-73
2022/04/30 00:52:15;;;;;;;;;;;;;;;;;;4947790;28;137748;-74
2022/04/30 00:54:41;;;;;;;;;;;;;;;;;;4949362;28;129098;-74
2022/04/30 00:57:08;;;;;;;;;;;;;;;;;;4949290;28;132852;-75
2022/04/30 00:59:34;;;;;;;;;;;;;;;;;;4951075;28;137046;-75
2022/04/30 01:02:01;;;;;;;;;;;;;;;;;;4944552;28;132177;-75
2022/04/30 01:04:39;;;;;;;;;;;;;;;;;;4945448;28;106144;-75
2022/04/30 01:07:06;;;;;;;;;;;;;;;;;;4983150;22;137312;-66
2022/04/30 01:09:33;;;;;;;;;;;;;;;;;;5009062;28;129483;-66
2022/04/30 01:11:59;;;;;;;;;;;;;;;;;;5001016;28;134252;-66
2022/04/30 01:14:25;;;;;;;;;;;;;;;;;;5001252;28;129955;-66
2022/04/30 01:16:54;;;;;;;;;;;;;;;;;;5007138;28;120525;-66
2022/04/30 01:19:20;;;;;;;;;;;;;;;;;;5002208;28;114719;-66
2022/04/30 01:21:47;;;;;;;;;;;;;;;;;;5006281;28;121367;-66
2022/04/30 01:24:13;;;;;;;;;;;;;;;;;;4998951;28;123497;-66
2022/04/30 01:26:39;;;;;;;;;;;;;;;;;;5000866;28;136428;-66
2022/04/30 01:29:05;;;;;;;;;;;;;;;;;;5006256;28;129303;-66
2022/04/30 01:39:52;;;;;;;;;;;;;;;;;;4996649;28;135577;-66
2022/04/30 01:42:18;;;;;;;;;;;;;;;;;;5004544;28;128011;-66
2022/04/30 01:44:46;;;;;;;;;;;;;;;;;;5002518;27;136403;-66
2022/04/30 01:47:13;;;;;;;;;;;;;;;;;;5005447;27;118863;-66
2022/04/30 01:49:39;;;;;;;;;;;;;;;;;;5005024;28;107706;-66
2022/04/30 01:52:06;;;;;;;;;;;;;;;;;;5003888;27;136538;-66
2022/04/30 01:54:32;;;;;;;;;;;;;;;;;;5006276;28;135635;-66
2022/04/30 01:56:58;;;;;;;;;;;;;;;;;;5006929;28;135560;-66
2022/04/30 01:59:24;;;;;;;;;;;;;;;;;;4999534;28;136699;-66
2022/04/30 02:01:51;;;;;;;;;;;;;;;;;;5004857;28;129410;-65
2022/04/30 02:04:17;;;;;;;;;;;;;;;;;;5000462;28;131137;-65
2022/04/30 02:06:43;;;;;;;;;;;;;;;;;;4995155;28;136872;-65
2022/04/30 02:09:10;;;;;;;;;;;;;;;;;;5006227;28;129167;-65
2022/04/30 02:11:36;;;;;;;;;;;;;;;;;;4995076;28;137069;-66
2022/04/30 02:14:02;;;;;;;;;;;;;;;;;;5008351;28;121717;-65
2022/04/30 02:16:28;;;;;;;;;;;;;;;;;;5004825;28;107803;-65
2022/04/30 02:18:55;;;;;;;;;;;;;;;;;;4998425;28;136812;-65
2022/04/30 02:21:21;;;;;;;;;;;;;;;;;;5008386;28;105933;-65
2022/04/30 02:23:48;;;;;;;;;;;;;;;;;;5002768;28;136678;-65
2022/04/30 02:26:14;;;;;;;;;;;;;;;;;;5006341;27;113501;-66
2022/04/30 02:28:41;;;;;;;;;;;;;;;;;;5008210;27;128486;-66
2022/04/30 02:31:07;;;;;;;;;;;;;;;;;;4996380;28;120371;-66
2022/04/30 02:33:33;;;;;;;;;;;;;;;;;;5001676;27;128028;-65
2022/04/30 02:36:00;;;;;;;;;;;;;;;;;;4993989;28;110631;-65
2022/04/30 02:38:26;;;;;;;;;;;;;;;;;;4990865;28;130118;-65
2022/04/30 02:40:53;;;;;;;;;;;;;;;;;;4989890;28;129222;-65
2022/04/30 02:43:26;;;;;;;;;;;;;;;;;;5001586;27;137665;-65
2022/04/30 02:45:52;;;;;;;;;;;;;;;;;;4989918;28;137126;-65
2022/04/30 02:48:18;;;;;;;;;;;;;;;;;;4988976;28;129806;-64
2022/04/30 02:50:45;;;;;;;;;;;;;;;;;;4990329;28;134921;-65
2022/04/30 02:53:11;;;;;;;;;;;;;;;;;;4998829;28;113188;-65
2022/04/30 02:55:37;;;;;;;;;;;;;;;;;;4998957;28;129191;-65
2022/04/30 03:00:48;;;;;;;;;;;;;;;;;;5005288;28;129252;-66
2022/04/30 03:03:34;;;;;;;;;;;;;;;;;;4997053;28;107912;-65
2022/04/30 03:06:01;;;;;;;;;;;;;;;;;;5005047;27;136882;-65
2022/04/30 03:08:27;;;;;;;;;;;;;;;;;;5005020;28;127303;-65
2022/04/30 03:10:54;;;;;;;;;;;;;;;;;;4996300;27;108592;-65
2022/04/30 03:13:20;;;;;;;;;;;;;;;;;;5003268;27;135824;-65
2022/04/30 03:15:46;;;;;;;;;;;;;;;;;;5006011;28;130487;-65
2022/04/30 03:23:42;;;;;;;;;;;;;;;;;;5003040;28;135204;-66
2022/04/30 03:26:08;;;;;;;;;;;;;;;;;;4999577;28;138115;-66
2022/04/30 03:28:36;;;;;;;;;;;;;;;;;;5000777;28;125601;-66
2022/04/30 03:31:03;;;;;;;;;;;;;;;;;;5001773;27;119045;-66
2022/04/30 03:33:30;;;;;;;;;;;;;;;;;;5000990;28;137703;-66
2022/04/30 03:35:56;;;;;;;;;;;;;;;;;;4995886;28;127447;-66
2022/04/30 03:38:22;;;;;;;;;;;;;;;;;;4991109;28;134848;-66
2022/04/30 03:40:49;;;;;;;;;;;;;;;;;;5008278;27;107724;-66
2022/04/30 03:43:15;;;;;;;;;;;;;;;;;;4999041;28;127215;-66
2022/04/30 03:45:41;;;;;;;;;;;;;;;;;;4999890;28;136991;-66
2022/04/30 03:48:07;;;;;;;;;;;;;;;;;;5000107;28;127799;-66
2022/04/30 03:50:34;;;;;;;;;;;;;;;;;;5003932;27;119520;-66
2022/04/30 03:53:00;;;;;;;;;;;;;;;;;;5009819;28;135435;-66
2022/04/30 03:55:26;;;;;;;;;;;;;;;;;;5001259;28;127967;-66
2022/04/30 03:57:53;;;;;;;;;;;;;;;;;;4995630;28;137029;-66
2022/04/30 04:00:20;;;;;;;;;;;;;;;;;;5005102;27;135786;-67
2022/04/30 04:02:46;;;;;;;;;;;;;;;;;;5005772;27;130691;-66
2022/04/30 04:05:13;;;;;;;;;;;;;;;;;;5013293;27;135602;-66
2022/04/30 04:07:39;;;;;;;;;;;;;;;;;;5002591;28;127956;-66
2022/04/30 04:10:05;;;;;;;;;;;;;;;;;;5001192;28;130262;-65
2022/04/30 04:12:31;;;;;;;;;;;;;;;;;;5005587;28;135092;-66
2022/04/30 04:17:43;;;;;;;;;;;;;;;;;;4997491;28;135689;-65
2022/04/30 04:20:09;;;;;;;;;;;;;;;;;;5007760;27;137286;-65
2022/04/30 04:22:35;;;;;;;;;;;;;;;;;;4994826;28;129551;-65
2022/04/30 04:27:47;;;;;;;;;;;;;;;;;;4996480;28;108547;-66
2022/04/30 04:30:13;;;;;;;;;;;;;;;;;;5003839;28;136459;-66
2022/04/30 04:32:39;;;;;;;;;;;;;;;;;;5003772;27;137723;-65
2022/04/30 04:35:06;;;;;;;;;;;;;;;;;;5008579;27;106032;-65
2022/04/30 04:37:32;;;;;;;;;;;;;;;;;;4999555;27;136679;-66
2022/04/30 04:39:58;;;;;;;;;;;;;;;;;;4988937;28;138004;-65
2022/04/30 04:42:24;;;;;;;;;;;;;;;;;;5007727;28;105558;-65
2022/04/30 04:44:51;;;;;;;;;;;;;;;;;;5004020;27;107718;-67
2022/04/30 04:47:17;;;;;;;;;;;;;;;;;;4997209;28;136731;-66
2022/04/30 04:49:43;;;;;;;;;;;;;;;;;;5004717;28;137160;-66
2022/04/30 04:52:10;;;;;;;;;;;;;;;;;;5007358;28;112178;-66
2022/04/30 04:54:36;;;;;;;;;;;;;;;;;;5004004;28;126214;-66
2022/04/30 04:57:02;;;;;;;;;;;;;;;;;;4993769;28;136898;-66
2022/04/30 04:59:29;;;;;;;;;;;;;;;;;;4999381;28;122756;-66
2022/04/30 05:01:55;;;;;;;;;;;;;;;;;;5004717;27;128694;-66
2022/04/30 05:04:24;;;;;;;;;;;;;;;;;;5006611;28;135861;-65
2022/04/30 05:06:51;;;;;;;;;;;;;;;;;;5005626;27;137299;-66
2022/04/30 05:09:18;;;;;;;;;;;;;;;;;;5009120;28;127131;-66
2022/04/30 05:11:44;;;;;;;;;;;;;;;;;;5006845;28;135566;-66
2022/04/30 05:14:10;;;;;;;;;;;;;;;;;;5004255;28;129805;-66
2022/04/30 05:16:36;;;;;;;;;;;;;;;;;;5003224;28;136310;-66
2022/04/30 05:19:05;;;;;;;;;;;;;;;;;;5005864;27;135888;-66
2022/04/30 05:21:31;;;;;;;;;;;;;;;;;;5004691;27;128827;-66
2022/04/30 05:23:58;;;;;;;;;;;;;;;;;;4999277;28;136836;-66
2022/04/30 05:26:24;;;;;;;;;;;;;;;;;;4996489;27;138296;-66
2022/04/30 05:28:51;;;;;;;;;;;;;;;;;;5007536;28;128451;-66
2022/04/30 05:31:18;;;;;;;;;;;;;;;;;;5000855;27;136567;-66
2022/04/30 05:33:44;;;;;;;;;;;;;;;;;;5005765;28;128284;-66
2022/04/30 05:36:10;;;;;;;;;;;;;;;;;;5003835;28;135169;-66
2022/04/30 05:38:36;;;;;;;;;;;;;;;;;;4999780;28;125793;-67
2022/04/30 05:41:03;;;;;;;;;;;;;;;;;;5008490;28;109417;-67
2022/04/30 05:43:29;;;;;;;;;;;;;;;;;;5004093;27;106641;-66
2022/04/30 05:45:55;;;;;;;;;;;;;;;;;;5005730;28;137634;-67
2022/04/30 05:48:22;;;;;;;;;;;;;;;;;;5006645;27;128068;-66
2022/04/30 05:50:51;;;;;;;;;;;;;;;;;;5006620;28;136487;-66
2022/04/30 05:53:17;;;;;;;;;;;;;;;;;;4999676;27;137134;-66
2022/04/30 05:55:43;;;;;;;;;;;;;;;;;;5003038;28;136219;-66
2022/04/30 05:58:09;;;;;;;;;;;;;;;;;;5002455;27;138409;-66
2022/04/30 06:00:36;;;;;;;;;;;;;;;;;;4996253;27;129759;-67
2022/04/30 06:03:02;;;;;;;;;;;;;;;;;;4999179;28;135368;-66
2022/04/30 06:05:28;;;;;;;;;;;;;;;;;;5001135;28;107980;-67
2022/04/30 06:07:55;;;;;;;;;;;;;;;;;;5000091;28;108802;-66
2022/04/30 06:10:21;;;;;;;;;;;;;;;;;;5003985;28;137244;-66
2022/04/30 06:12:48;;;;;;;;;;;;;;;;;;5001212;27;137850;-66
2022/04/30 06:15:14;;;;;;;;;;;;;;;;;;5004443;28;127608;-66
2022/04/30 06:17:40;;;;;;;;;;;;;;;;;;5003186;28;138265;-66
2022/04/30 06:20:06;;;;;;;;;;;;;;;;;;5007245;28;127969;-66
2022/04/30 06:22:34;;;;;;;;;;;;;;;;;;5003014;27;107185;-65
2022/04/30 06:25:00;;;;;;;;;;;;;;;;;;4993502;27;137640;-65
2022/04/30 06:27:27;;;;;;;;;;;;;;;;;;5002980;27;130613;-66
2022/04/30 06:29:53;;;;;;;;;;;;;;;;;;5001513;28;136689;-65
2022/04/30 06:32:19;;;;;;;;;;;;;;;;;;5004166;27;137774;-65
2022/04/30 06:34:45;;;;;;;;;;;;;;;;;;5009515;27;128902;-64
2022/04/30 06:37:12;;;;;;;;;;;;;;;;;;4994983;28;137359;-64
2022/04/30 06:39:38;;;;;;;;;;;;;;;;;;5004841;27;116809;-66
2022/04/30 06:42:05;;;;;;;;;;;;;;;;;;5002723;28;129560;-66
2022/04/30 06:44:31;;;;;;;;;;;;;;;;;;5001453;27;120165;-67
2022/04/30 06:46:58;;;;;;;;;;;;;;;;;;5006368;27;129378;-65
2022/04/30 06:49:24;;;;;;;;;;;;;;;;;;4999099;28;135925;-66
2022/04/30 06:51:50;;;;;;;;;;;;;;;;;;5000659;28;135661;-67
2022/04/30 06:57:09;;;;;;;;;;;;;;;;;;5005831;28;125878;-66
2022/04/30 06:59:38;;;;;;;;;;;;;;;;;;5002878;28;128655;-67
2022/04/30 07:02:17;;;;;;;;;;;;;;;;;;4996508;28;136096;-67
2022/04/30 07:04:44;;;;;;;;;;;;;;;;;;4989329;28;137908;-67
2022/04/30 07:07:10;;;;;;;;;;;;;;;;;;4994479;27;127508;-67
2022/04/30 07:09:37;;;;;;;;;;;;;;;;;;5000697;28;135031;-67
2022/04/30 07:12:04;;;;;;;;;;;;;;;;;;4999356;28;136814;-66
2022/04/30 07:14:31;;;;;;;;;;;;;;;;;;5001424;27;118454;-66
2022/04/30 07:16:57;;;;;;;;;;;;;;;;;;5006229;27;107674;-66
2022/04/30 07:19:23;;;;;;;;;;;;;;;;;;5004321;27;137143;-66
2022/04/30 07:21:50;;;;;;;;;;;;;;;;;;5003458;27;115791;-67
2022/04/30 07:24:16;;;;;;;;;;;;;;;;;;4998852;28;137266;-66
2022/04/30 07:26:42;;;;;;;;;;;;;;;;;;4993982;28;127936;-66
2022/04/30 07:29:08;;;;;;;;;;;;;;;;;;5007263;28;135135;-65
2022/04/30 07:31:35;;;;;;;;;;;;;;;;;;5006623;28;129859;-66
2022/04/30 07:34:02;;;;;;;;;;;;;;;;;;5003166;27;120321;-66
2022/04/30 07:36:29;;;;;;;;;;;;;;;;;;5002732;27;139183;-66
2022/04/30 07:38:55;;;;;;;;;;;;;;;;;;5000059;28;134413;-66
2022/04/30 07:41:21;;;;;;;;;;;;;;;;;;5006164;27;130035;-66
2022/04/30 07:43:48;;;;;;;;;;;;;;;;;;5000026;28;117546;-66
2022/04/30 07:46:14;;;;;;;;;;;;;;;;;;4994395;28;127789;-66
2022/04/30 07:48:40;;;;;;;;;;;;;;;;;;5003445;28;135946;-66
2022/04/30 07:51:14;;;;;;;;;;;;;;;;;;5006761;27;126908;-63
2022/04/30 07:53:41;;;;;;;;;;;;;;;;;;4999362;28;127442;-63
2022/04/30 07:56:08;;;;;;;;;;;;;;;;;;4994439;28;136252;-65
2022/04/30 07:58:34;;;;;;;;;;;;;;;;;;5008859;28;137468;-66
2022/04/30 08:01:00;;;;;;;;;;;;;;;;;;5005463;28;126524;-67
2022/04/30 08:03:27;;;;;;;;;;;;;;;;;;5010725;27;137082;-65
2022/04/30 08:05:53;;;;;;;;;;;;;;;;;;5003550;28;106576;-65
2022/04/30 08:08:20;;;;;;;;;;;;;;;;;;5004393;28;133406;-65
2022/04/30 08:10:46;;;;;;;;;;;;;;;;;;4999199;28;132615;-65
2022/04/30 08:13:12;;;;;;;;;;;;;;;;;;4999460;28;129180;-66
2022/04/30 08:15:43;;;;;;;;;;;;;;;;;;5000528;28;136325;-65
2022/04/30 08:18:09;;;;;;;;;;;;;;;;;;4999499;28;136044;-65
2022/04/30 08:20:37;;;;;;;;;;;;;;;;;;5000729;28;120763;-65
2022/04/30 08:23:04;;;;;;;;;;;;;;;;;;4999945;28;136554;-65
2022/04/30 08:25:30;;;;;;;;;;;;;;;;;;5003778;28;105564;-65
2022/04/30 08:27:56;;;;;;;;;;;;;;;;;;4987330;28;137295;-64
2022/04/30 08:30:22;;;;;;;;;;;;;;;;;;4999496;28;135531;-64
2022/04/30 08:32:49;;;;;;;;;;;;;;;;;;5002248;28;120419;-63
2022/04/30 08:35:15;;;;;;;;;;;;;;;;;;4991714;27;135801;-64
2022/04/30 08:38:01;;;;;;;;;;;;;;;;;;5000047;28;107796;-65
2022/04/30 08:40:28;;;;;;;;;;;;;;;;;;4988262;28;129777;-65
2022/04/30 08:42:54;;;;;;;;;;;;;;;;;;4994005;28;136167;-63
2022/04/30 08:45:20;;;;;;;;;;;;;;;;;;5003392;28;136483;-63
2022/04/30 08:47:47;;;;;;;;;;;;;;;;;;4998876;27;136829;-65
2022/04/30 08:50:14;;;;;;;;;;;;;;;;;;4998226;27;135540;-64
2022/04/30 08:52:40;;;;;;;;;;;;;;;;;;5006869;28;129370;-63
2022/04/30 08:55:06;;;;;;;;;;;;;;;;;;5002085;28;137059;-64
2022/04/30 08:57:33;;;;;;;;;;;;;;;;;;5003535;28;136735;-63
2022/04/30 08:59:59;;;;;;;;;;;;;;;;;;5008616;27;121613;-63
2022/04/30 09:02:25;;;;;;;;;;;;;;;;;;5001065;28;135349;-64
2022/04/30 09:04:52;;;;;;;;;;;;;;;;;;5001112;28;134435;-69
2022/04/30 09:07:18;;;;;;;;;;;;;;;;;;5000654;28;111367;-65
2022/04/30 09:09:45;;;;;;;;;;;;;;;;;;4999624;28;137475;-64
2022/04/30 09:12:11;;;;;;;;;;;;;;;;;;5002737;28;111584;-66
2022/04/30 09:14:40;;;;;;;;;;;;;;;;;;5008093;27;136441;-65
2022/04/30 09:17:06;;;;;;;;;;;;;;;;;;4996732;28;136991;-64
2022/04/30 09:19:33;;;;;;;;;;;;;;;;;;5000868;28;130563;-65
2022/04/30 09:22:00;;;;;;;;;;;;;;;;;;5007238;28;129319;-69
2022/04/30 09:24:27;;;;;;;;;;;;;;;;;;4995634;28;127268;-67
2022/04/30 09:26:53;;;;;;;;;;;;;;;;;;5000015;28;112952;-67
2022/04/30 09:29:20;;;;;;;;;;;;;;;;;;4993392;28;120894;-64
2022/04/30 09:31:46;;;;;;;;;;;;;;;;;;4997984;27;126108;-65
2022/04/30 09:39:44;;;;;;;;;;;;;;;;;;4999086;28;128053;-65
2022/04/30 09:42:11;;;;;;;;;;;;;;;;;;5000967;28;135038;-65
2022/04/30 09:44:37;;;;;;;;;;;;;;;;;;4997303;28;137858;-66
2022/04/30 09:47:03;;;;;;;;;;;;;;;;;;4995756;27;106779;-66
2022/04/30 09:55:00;;;;;;;;;;;;;;;;;;5001679;28;134816;-67
2022/04/30 09:57:27;;;;;;;;;;;;;;;;;;5001685;28;135816;-65
2022/04/30 09:59:53;;;;;;;;;;;;;;;;;;4995800;27;111895;-65
2022/04/30 10:02:20;;;;;;;;;;;;;;;;;;5003100;27;136974;-67
2022/04/30 10:04:46;;;;;;;;;;;;;;;;;;4998519;28;136837;-66
2022/04/30 10:07:13;;;;;;;;;;;;;;;;;;5004816;28;129126;-66
2022/04/30 10:09:39;;;;;;;;;;;;;;;;;;4998403;28;137415;-64
2022/04/30 10:12:06;;;;;;;;;;;;;;;;;;5001611;28;137693;-65
2022/04/30 10:14:33;;;;;;;;;;;;;;;;;;5001867;28;128015;-66
2022/04/30 10:17:12;;;;;;;;;;;;;;;;;;5006632;28;135799;-64
2022/04/30 10:19:39;;;;;;;;;;;;;;;;;;5003689;27;123867;-64
2022/04/30 10:22:06;;;;;;;;;;;;;;;;;;5005441;27;106710;-66
2022/04/30 10:24:32;;;;;;;;;;;;;;;;;;4997722;28;137085;-62
2022/04/30 10:26:58;;;;;;;;;;;;;;;;;;4996219;28;128399;-65
2022/04/30 10:29:25;;;;;;;;;;;;;;;;;;5003947;27;136846;-65
2022/04/30 10:31:51;;;;;;;;;;;;;;;;;;5002666;28;137346;-65
2022/04/30 10:34:17;;;;;;;;;;;;;;;;;;5011668;27;129608;-65
2022/04/30 10:36:47;;;;;;;;;;;;;;;;;;5001286;28;137126;-65
2022/04/30 10:39:13;;;;;;;;;;;;;;;;;;5004843;28;128084;-65
2022/04/30 10:41:39;;;;;;;;;;;;;;;;;;5006510;28;121297;-65
2022/04/30 10:44:06;;;;;;;;;;;;;;;;;;4993316;28;135832;-65
2022/04/30 10:46:32;;;;;;;;;;;;;;;;;;5005672;28;127991;-65
2022/04/30 10:48:58;;;;;;;;;;;;;;;;;;5003305;28;136417;-66
2022/04/30 10:51:26;;;;;;;;;;;;;;;;;;4992955;27;138101;-65
2022/04/30 10:53:53;;;;;;;;;;;;;;;;;;5000581;27;128799;-65
2022/04/30 10:56:19;;;;;;;;;;;;;;;;;;5003466;28;136721;-65
2022/04/30 10:58:45;;;;;;;;;;;;;;;;;;5002435;27;110550;-64
2022/04/30 11:01:12;;;;;;;;;;;;;;;;;;5003409;28;107662;-65
2022/04/30 11:03:38;;;;;;;;;;;;;;;;;;5003220;28;107457;-66
2022/04/30 11:06:05;;;;;;;;;;;;;;;;;;5002689;28;130668;-65
2022/04/30 11:08:31;;;;;;;;;;;;;;;;;;5004169;28;135871;-68
2022/04/30 11:10:57;;;;;;;;;;;;;;;;;;5004602;27;107567;-65
2022/04/30 11:13:24;;;;;;;;;;;;;;;;;;5004621;27;129422;-65
2022/04/30 11:15:50;;;;;;;;;;;;;;;;;;4997788;28;135848;-65
2022/04/30 11:18:16;;;;;;;;;;;;;;;;;;4992821;28;136200;-70
2022/04/30 11:20:43;;;;;;;;;;;;;;;;;;4998357;28;134359;-70
2022/04/30 11:23:09;;;;;;;;;;;;;;;;;;5001732;28;115094;-70
2022/04/30 11:25:36;;;;;;;;;;;;;;;;;;5002547;28;125428;-71
2022/04/30 11:28:02;;;;;;;;;;;;;;;;;;5001225;28;136426;-71
2022/04/30 11:30:28;;;;;;;;;;;;;;;;;;5001385;27;136336;-68
2022/04/30 11:32:55;;;;;;;;;;;;;;;;;;4991091;28;107285;-69
2022/04/30 11:35:21;;;;;;;;;;;;;;;;;;5004483;28;135527;-66
2022/04/30 11:37:47;;;;;;;;;;;;;;;;;;4998690;27;121016;-68
2022/04/30 11:40:13;;;;;;;;;;;;;;;;;;5000360;28;128514;-68
2022/04/30 11:42:40;;;;;;;;;;;;;;;;;;4997258;27;136829;-69
2022/04/30 11:45:06;;;;;;;;;;;;;;;;;;4991255;28;114618;-69
2022/04/30 11:47:32;;;;;;;;;;;;;;;;;;5000559;28;137154;-70
2022/04/30 11:49:59;;;;;;;;;;;;;;;;;;4998761;28;136104;-67
2022/04/30 11:52:25;;;;;;;;;;;;;;;;;;4990283;28;126215;-70
2022/04/30 11:54:51;;;;;;;;;;;;;;;;;;4991981;28;136677;-69
2022/04/30 11:57:17;;;;;;;;;;;;;;;;;;4998086;27;124510;-69
2022/04/30 11:59:44;;;;;;;;;;;;;;;;;;5004202;28;126632;-69
2022/04/30 12:02:10;;;;;;;;;;;;;;;;;;4998319;28;137175;-69
2022/04/30 12:04:37;;;;;;;;;;;;;;;;;;4990230;28;124151;-70
2022/04/30 12:07:03;;;;;;;;;;;;;;;;;;5001825;27;122698;-67
2022/04/30 12:09:30;;;;;;;;;;;;;;;;;;4993329;28;137058;-70
2022/04/30 12:11:56;;;;;;;;;;;;;;;;;;4993105;28;117428;-70
2022/04/30 12:14:23;;;;;;;;;;;;;;;;;;5002512;28;112505;-71
2022/04/30 12:16:49;;;;;;;;;;;;;;;;;;5004048;28;135913;-69
2022/04/30 12:24:45;;;;;;;;;;;;;;;;;;5004485;28;135850;-67
2022/04/30 12:27:12;;;;;;;;;;;;;;;;;;5000238;28;136073;-68
2022/04/30 12:29:38;;;;;;;;;;;;;;;;;;5004173;27;137578;-67
2022/04/30 12:32:04;;;;;;;;;;;;;;;;;;5000827;28;128202;-67
2022/04/30 12:34:32;;;;;;;;;;;;;;;;;;4999424;28;133110;-68
2022/04/30 12:36:59;;;;;;;;;;;;;;;;;;5007331;27;139393;-68
2022/04/30 12:39:25;;;;;;;;;;;;;;;;;;4992858;28;126233;-67
2022/04/30 12:41:51;;;;;;;;;;;;;;;;;;5004574;27;136716;-67
2022/04/30 12:44:18;;;;;;;;;;;;;;;;;;5003219;28;106124;-67
2022/04/30 12:46:44;;;;;;;;;;;;;;;;;;5007920;27;118129;-66
2022/04/30 12:49:13;;;;;;;;;;;;;;;;;;5004725;28;132746;-67
2022/04/30 12:51:40;;;;;;;;;;;;;;;;;;5003683;28;128598;-69
2022/04/30 12:54:06;;;;;;;;;;;;;;;;;;5008841;28;128843;-68
2022/04/30 12:56:32;;;;;;;;;;;;;;;;;;5001020;28;108876;-69
2022/04/30 12:58:59;;;;;;;;;;;;;;;;;;4994474;27;128368;-68
2022/04/30 13:01:25;;;;;;;;;;;;;;;;;;5005009;28;136653;-71
2022/04/30 13:03:51;;;;;;;;;;;;;;;;;;4994205;27;137352;-67
2022/04/30 13:06:18;;;;;;;;;;;;;;;;;;5002979;27;126931;-66
2022/04/30 13:14:15;;;;;;;;;;;;;;;;;;4999585;28;136582;-68
2022/04/30 13:16:41;;;;;;;;;;;;;;;;;;4989745;28;136964;-68
2022/04/30 13:19:07;;;;;;;;;;;;;;;;;;5000926;28;116494;-68
2022/04/30 13:21:33;;;;;;;;;;;;;;;;;;4993564;28;122316;-68
2022/04/30 13:24:00;;;;;;;;;;;;;;;;;;5003548;28;127373;-67
2022/04/30 13:26:26;;;;;;;;;;;;;;;;;;5002718;27;128050;-68
2022/04/30 13:28:52;;;;;;;;;;;;;;;;;;4999095;28;135284;-68
2022/04/30 13:31:19;;;;;;;;;;;;;;;;;;4998869;27;130014;-67
2022/04/30 13:33:45;;;;;;;;;;;;;;;;;;4996553;28;134720;-68
2022/04/30 13:36:11;;;;;;;;;;;;;;;;;;5005366;28;133216;-69
2022/04/30 13:38:38;;;;;;;;;;;;;;;;;;5007652;27;129468;-68
2022/04/30 13:41:08;;;;;;;;;;;;;;;;;;5001090;28;138739;-68
2022/04/30 13:43:34;;;;;;;;;;;;;;;;;;5003703;28;139534;-67
2022/04/30 13:46:01;;;;;;;;;;;;;;;;;;5003771;28;129318;-68
2022/04/30 13:48:27;;;;;;;;;;;;;;;;;;4997708;27;135836;-75
2022/04/30 13:50:54;;;;;;;;;;;;;;;;;;5009640;28;128777;-67
2022/04/30 13:53:20;;;;;;;;;;;;;;;;;;4998691;28;126465;-70
2022/04/30 13:55:46;;;;;;;;;;;;;;;;;;5003485;27;137851;-68
2022/04/30 13:58:13;;;;;;;;;;;;;;;;;;5005806;28;120467;-68
2022/04/30 14:00:39;;;;;;;;;;;;;;;;;;5000261;28;117919;-67
2022/04/30 14:03:06;;;;;;;;;;;;;;;;;;5002148;27;137887;-67
2022/04/30 14:05:32;;;;;;;;;;;;;;;;;;5000654;28;107581;-67
2022/04/30 14:07:59;;;;;;;;;;;;;;;;;;5003477;27;136612;-69
2022/04/30 14:10:28;;;;;;;;;;;;;;;;;;5002485;28;136434;-66
2022/04/30 14:12:54;;;;;;;;;;;;;;;;;;5008110;27;128939;-68
2022/04/30 14:15:41;;;;;;;;;;;;;;;;;;4996190;28;137010;-67
2022/04/30 14:18:16;;;;;;;;;;;;;;;;;;4993026;28;129835;-67
2022/04/30 14:20:45;;;;;;;;;;;;;;;;;;4998948;28;137768;-68
2022/04/30 14:23:11;;;;;;;;;;;;;;;;;;4992714;28;135680;-70
2022/04/30 14:25:38;;;;;;;;;;;;;;;;;;4993082;28;129398;-68
2022/04/30 14:28:04;;;;;;;;;;;;;;;;;;4999756;28;136637;-66
2022/04/30 14:30:32;;;;;;;;;;;;;;;;;;5004508;28;137780;-69
2022/04/30 14:32:59;;;;;;;;;;;;;;;;;;5006104;27;106120;-68
2022/04/30 14:35:25;;;;;;;;;;;;;;;;;;5004014;28;137315;-68
2022/04/30 14:37:51;;;;;;;;;;;;;;;;;;4995793;28;128011;-68
2022/04/30 14:40:17;;;;;;;;;;;;;;;;;;4997363;28;135217;-68
2022/04/30 14:42:44;;;;;;;;;;;;;;;;;;5004537;28;135657;-68
2022/04/30 14:45:10;;;;;;;;;;;;;;;;;;5004452;27;128066;-68
2022/04/30 14:47:37;;;;;;;;;;;;;;;;;;5003895;27;129753;-68
2022/04/30 14:50:03;;;;;;;;;;;;;;;;;;5003587;27;136367;-68
2022/04/30 14:52:29;;;;;;;;;;;;;;;;;;5002259;27;106993;-68
2022/04/30 14:54:56;;;;;;;;;;;;;;;;;;5002405;27;137798;-68
2022/04/30 14:57:23;;;;;;;;;;;;;;;;;;5003209;28;108244;-68
2022/04/30 14:59:49;;;;;;;;;;;;;;;;;;4997457;27;136524;-67
2022/04/30 15:02:15;;;;;;;;;;;;;;;;;;4989042;28;124784;-67
2022/04/30 15:04:42;;;;;;;;;;;;;;;;;;4992635;28;127935;-67
2022/04/30 15:07:08;;;;;;;;;;;;;;;;;;4994026;28;107515;-68
2022/04/30 15:09:35;;;;;;;;;;;;;;;;;;4996470;27;136021;-68
2022/04/30 15:12:01;;;;;;;;;;;;;;;;;;5003829;28;105757;-68
2022/04/30 15:14:27;;;;;;;;;;;;;;;;;;5004210;27;136375;-67
2022/04/30 15:16:53;;;;;;;;;;;;;;;;;;5004317;28;135855;-68
2022/04/30 15:19:20;;;;;;;;;;;;;;;;;;4996121;27;136730;-67
2022/04/30 15:21:46;;;;;;;;;;;;;;;;;;5004145;28;135031;-68
2022/04/30 15:24:19;;;;;;;;;;;;;;;;;;5000111;27;127968;-67
2022/04/30 15:26:46;;;;;;;;;;;;;;;;;;4994557;27;139330;-67
2022/04/30 15:29:12;;;;;;;;;;;;;;;;;;4996079;27;138576;-67
2022/04/30 15:31:38;;;;;;;;;;;;;;;;;;5002463;27;121173;-68
2022/04/30 15:34:05;;;;;;;;;;;;;;;;;;5002284;27;136589;-67
2022/04/30 15:36:31;;;;;;;;;;;;;;;;;;4997338;27;137128;-67
2022/04/30 15:38:57;;;;;;;;;;;;;;;;;;5006524;28;128666;-68
2022/04/30 15:41:25;;;;;;;;;;;;;;;;;;5000708;27;138367;-67
2022/04/30 15:43:51;;;;;;;;;;;;;;;;;;5000041;28;129899;-67
2022/04/30 15:51:21;;;;;;;;;;;;;;;;;;5007438;27;109225;-67
2022/04/30 15:51:49;;;;;;;;;;;;;;;;;;4994307;28;114292;-66
2022/04/30 15:54:16;;;;;;;;;;;;;;;;;;5000085;27;136432;-64
2022/04/30 15:56:43;;;;;;;;;;;;;;;;;;5002631;28;114387;-65
2022/04/30 15:59:09;;;;;;;;;;;;;;;;;;5001605;28;128881;-65
2022/04/30 16:01:36;;;;;;;;;;;;;;;;;;5006627;28;136007;-65
2022/04/30 16:04:02;;;;;;;;;;;;;;;;;;5005100;28;129488;-65
2022/04/30 16:06:28;;;;;;;;;;;;;;;;;;5003833;27;135574;-66
2022/04/30 16:08:55;;;;;;;;;;;;;;;;;;5006098;27;107274;-66
2022/04/30 16:11:25;;;;;;;;;;;;;;;;;;5002217;27;127171;-65
2022/04/30 16:13:52;;;;;;;;;;;;;;;;;;5008008;28;135547;-64
2022/04/30 16:16:18;;;;;;;;;;;;;;;;;;5006168;27;135625;-65
2022/04/30 16:18:49;;;;;;;;;;;;;;;;;;5007595;28;130710;-65
2022/04/30 16:21:15;;;;;;;;;;;;;;;;;;5000614;27;134032;-65
2022/04/30 16:23:42;;;;;;;;;;;;;;;;;;5008217;28;136001;-65
2022/04/30 16:26:11;;;;;;;;;;;;;;;;;;5003938;27;134957;-68
2022/04/30 16:28:37;;;;;;;;;;;;;;;;;;5006502;27;139351;-69
2022/04/30 16:31:04;;;;;;;;;;;;;;;;;;5003916;27;127979;-66
2022/04/30 16:33:31;;;;;;;;;;;;;;;;;;5003225;28;135117;-66
2022/04/30 16:35:57;;;;;;;;;;;;;;;;;;5005354;27;107843;-66
2022/04/30 16:38:23;;;;;;;;;;;;;;;;;;5002516;28;129999;-66
2022/04/30 16:40:49;;;;;;;;;;;;;;;;;;5000431;27;130242;-66
2022/04/30 16:43:16;;;;;;;;;;;;;;;;;;4998077;28;123309;-66
2022/04/30 16:45:42;;;;;;;;;;;;;;;;;;5005712;27;106594;-67
2022/04/30 16:48:08;;;;;;;;;;;;;;;;;;5000889;28;136182;-67
2022/04/30 16:50:35;;;;;;;;;;;;;;;;;;5000707;27;129408;-67
2022/04/30 16:53:01;;;;;;;;;;;;;;;;;;5001328;27;125797;-68
2022/04/30 16:58:13;;;;;;;;;;;;;;;;;;4998691;28;116666;-67
2022/04/30 17:00:40;;;;;;;;;;;;;;;;;;5005705;27;106761;-67
2022/04/30 17:03:07;;;;;;;;;;;;;;;;;;5002660;28;134367;-67
2022/04/30 17:05:33;;;;;;;;;;;;;;;;;;5009049;27;129115;-67
2022/04/30 17:07:59;;;;;;;;;;;;;;;;;;5003834;27;106808;-67
2022/04/30 17:10:26;;;;;;;;;;;;;;;;;;5004277;27;127875;-67
2022/04/30 17:12:53;;;;;;;;;;;;;;;;;;5002580;27;135106;-67
2022/04/30 17:15:19;;;;;;;;;;;;;;;;;;4997004;27;137000;-67
2022/04/30 17:17:46;;;;;;;;;;;;;;;;;;5004790;27;130014;-67